sensor_id;sensor_type;location;lat;lon;timestamp;temperature;humidity
46037;DHT22;31769;49.304;8.428;2023-08-30T00:02:56;15.10;99.90
46037;DHT22;31769;49.304;8.428;2023-08-30T00:06:02;15.00;99.90
46037;DHT22;31769;49.304;8.428;2023-08-30T00:09:03;14.90;99.90
46037;DHT22;31769;49.304;8.428;2023-08-30T00:12:04;14.90;99.90
46037;DHT22;31769;49.304;8.428;2023-08-30T00:15:05;14.80;99.90
46037;DHT22;31769;49.304;8.428;2023-08-30T00:18:06;14.70;99.90
46037;DHT22;31769;49.304;8.428;2023-08-30T00:21:07;14.60;99.90
46037;DHT22;31769;49.304;8.428;2023-08-30T00:24:07;14.60;99.90
46037;DHT22;31769;49.304;8.428;2023-08-30T00:27:08;14.60;99.90
46037;DHT22;31769;49.304;8.428;2023-08-30T00:30:09;14.60;99.90
46037;DHT22;31769;49.304;8.428;2023-08-30T00:33:10;14.60;99.90
46037;DHT22;31769;49.304;8.428;2023-08-30T00:36:11;14.60;99.90
46037;DHT22;31769;49.304;8.428;2023-08-30T00:39:12;14.70;99.90
46037;DHT22;31769;49.304;8.428;2023-08-30T00:42:13;14.70;99.90
46037;DHT22;31769;49.304;8.428;2023-08-30T00:45:14;14.70;99.90
46037;DHT22;31769;49.304;8.428;2023-08-30T00:48:15;14.70;99.90
46037;DHT22;31769;49.304;8.428;2023-08-30T00:51:16;14.70;99.90
46037;DHT22;31769;49.304;8.428;2023-08-30T00:54:17;14.70;99.90
46037;DHT22;31769;49.304;8.428;2023-08-30T00:57:18;14.80;99.90
46037;DHT22;31769;49.304;8.428;2023-08-30T01:00:18;14.80;99.90
46037;DHT22;31769;49.304;8.428;2023-08-30T01:03:19;14.80;99.90
46037;DHT22;31769;49.304;8.428;2023-08-30T01:06:22;14.80;99.90
46037;DHT22;31769;49.304;8.428;2023-08-30T01:09:24;14.80;99.90
46037;DHT22;31769;49.304;8.428;2023-08-30T01:12:39;14.80;99.90
46037;DHT22;31769;49.304;8.428;2023-08-30T01:15:41;14.80;99.90
46037;DHT22;31769;49.304;8.428;2023-08-30T01:18:43;14.80;99.90
46037;DHT22;31769;49.304;8.428;2023-08-30T01:21:52;14.80;99.90
46037;DHT22;31769;49.304;8.428;2023-08-30T01:28:04;14.80;99.90
46037;DHT22;31769;49.304;8.428;2023-08-30T01:31:09;14.80;99.90
46037;DHT22;31769;49.304;8.428;2023-08-30T01:34:12;14.80;99.90
46037;DHT22;31769;49.304;8.428;2023-08-30T01:37:14;14.80;99.90
46037;DHT22;31769;49.304;8.428;2023-08-30T01:40:16;14.90;99.90
46037;DHT22;31769;49.304;8.428;2023-08-30T01:43:18;14.90;99.90
46037;DHT22;31769;49.304;8.428;2023-08-30T01:46:20;14.80;99.90
46037;DHT22;31769;49.304;8.428;2023-08-30T01:49:21;14.80;99.90
46037;DHT22;31769;49.304;8.428;2023-08-30T01:52:23;14.80;99.90
46037;DHT22;31769;49.304;8.428;2023-08-30T01:55:25;14.80;99.90
46037;DHT22;31769;49.304;8.428;2023-08-30T01:58:27;14.70;99.90
46037;DHT22;31769;49.304;8.428;2023-08-30T02:01:27;14.80;99.90
46037;DHT22;31769;49.304;8.428;2023-08-30T02:04:28;14.80;99.90
46037;DHT22;31769;49.304;8.428;2023-08-30T02:07:48;14.80;99.90
46037;DHT22;31769;49.304;8.428;2023-08-30T02:11:01;14.80;99.90
46037;DHT22;31769;49.304;8.428;2023-08-30T02:14:05;14.80;99.90
46037;DHT22;31769;49.304;8.428;2023-08-30T02:17:10;14.80;99.90
46037;DHT22;31769;49.304;8.428;2023-08-30T02:20:12;14.80;99.90
46037;DHT22;31769;49.304;8.428;2023-08-30T02:23:13;14.70;99.90
46037;DHT22;31769;49.304;8.428;2023-08-30T02:26:13;14.70;99.90
46037;DHT22;31769;49.304;8.428;2023-08-30T02:29:14;14.80;99.90
46037;DHT22;31769;49.304;8.428;2023-08-30T02:32:15;14.70;99.90
46037;DHT22;31769;49.304;8.428;2023-08-30T02:35:22;14.70;99.90
46037;DHT22;31769;49.304;8.428;2023-08-30T02:38:22;14.70;99.90
46037;DHT22;31769;49.304;8.428;2023-08-30T02:41:23;14.70;99.90
46037;DHT22;31769;49.304;8.428;2023-08-30T02:44:24;14.70;99.90
46037;DHT22;31769;49.304;8.428;2023-08-30T02:47:24;14.70;99.90
46037;DHT22;31769;49.304;8.428;2023-08-30T02:50:25;14.70;99.90
46037;DHT22;31769;49.304;8.428;2023-08-30T02:53:26;14.70;99.90
46037;DHT22;31769;49.304;8.428;2023-08-30T02:56:26;14.70;99.90
46037;DHT22;31769;49.304;8.428;2023-08-30T02:59:27;14.60;99.90
46037;DHT22;31769;49.304;8.428;2023-08-30T03:02:28;14.70;99.90
46037;DHT22;31769;49.304;8.428;2023-08-30T03:05:29;14.70;99.90
46037;DHT22;31769;49.304;8.428;2023-08-30T03:08:29;14.70;99.90
46037;DHT22;31769;49.304;8.428;2023-08-30T03:11:32;14.70;99.90
46037;DHT22;31769;49.304;8.428;2023-08-30T03:14:32;14.70;99.90
46037;DHT22;31769;49.304;8.428;2023-08-30T03:17:34;14.60;99.90
46037;DHT22;31769;49.304;8.428;2023-08-30T03:20:35;14.70;99.90
46037;DHT22;31769;49.304;8.428;2023-08-30T03:23:36;14.70;99.90
46037;DHT22;31769;49.304;8.428;2023-08-30T03:26:37;14.70;99.90
46037;DHT22;31769;49.304;8.428;2023-08-30T03:29:38;14.50;99.90
46037;DHT22;31769;49.304;8.428;2023-08-30T03:32:39;14.60;99.90
46037;DHT22;31769;49.304;8.428;2023-08-30T03:35:40;14.60;99.90
46037;DHT22;31769;49.304;8.428;2023-08-30T03:38:41;14.60;99.90
46037;DHT22;31769;49.304;8.428;2023-08-30T03:41:42;14.60;99.90
46037;DHT22;31769;49.304;8.428;2023-08-30T03:44:43;14.60;99.90
46037;DHT22;31769;49.304;8.428;2023-08-30T03:47:44;14.60;99.90
46037;DHT22;31769;49.304;8.428;2023-08-30T03:50:45;15.40;99.90
46037;DHT22;31769;49.304;8.428;2023-08-30T03:53:46;14.60;99.90
46037;DHT22;31769;49.304;8.428;2023-08-30T03:56:47;14.60;99.90
46037;DHT22;31769;49.304;8.428;2023-08-30T03:59:48;14.60;99.90
46037;DHT22;31769;49.304;8.428;2023-08-30T04:02:49;14.50;99.90
46037;DHT22;31769;49.304;8.428;2023-08-30T04:05:56;14.50;99.90
46037;DHT22;31769;49.304;8.428;2023-08-30T04:08:57;14.50;99.90
46037;DHT22;31769;49.304;8.428;2023-08-30T04:11:58;14.50;99.90
46037;DHT22;31769;49.304;8.428;2023-08-30T04:15:00;14.50;99.90
46037;DHT22;31769;49.304;8.428;2023-08-30T04:18:02;14.40;99.90
46037;DHT22;31769;49.304;8.428;2023-08-30T04:21:03;14.40;99.90
46037;DHT22;31769;49.304;8.428;2023-08-30T04:24:06;14.50;99.90
46037;DHT22;31769;49.304;8.428;2023-08-30T04:27:07;14.40;99.90
46037;DHT22;31769;49.304;8.428;2023-08-30T04:30:10;14.40;99.90
46037;DHT22;31769;49.304;8.428;2023-08-30T04:33:10;14.40;99.90
46037;DHT22;31769;49.304;8.428;2023-08-30T04:36:11;14.40;99.90
46037;DHT22;31769;49.304;8.428;2023-08-30T04:39:13;14.40;99.90
46037;DHT22;31769;49.304;8.428;2023-08-30T04:42:14;14.40;99.90
46037;DHT22;31769;49.304;8.428;2023-08-30T04:45:15;14.40;99.90
46037;DHT22;31769;49.304;8.428;2023-08-30T04:48:16;14.40;99.90
46037;DHT22;31769;49.304;8.428;2023-08-30T04:51:18;14.80;99.90
46037;DHT22;31769;49.304;8.428;2023-08-30T04:54:18;14.40;99.90
46037;DHT22;31769;49.304;8.428;2023-08-30T04:57:19;14.40;99.90
46037;DHT22;31769;49.304;8.428;2023-08-30T05:00:20;14.40;99.90
46037;DHT22;31769;49.304;8.428;2023-08-30T05:03:21;14.40;99.90
46037;DHT22;31769;49.304;8.428;2023-08-30T05:06:21;14.40;99.90
46037;DHT22;31769;49.304;8.428;2023-08-30T05:09:22;14.40;99.90
46037;DHT22;31769;49.304;8.428;2023-08-30T05:12:25;14.40;99.90
46037;DHT22;31769;49.304;8.428;2023-08-30T05:15:26;14.50;99.90
46037;DHT22;31769;49.304;8.428;2023-08-30T05:18:26;14.40;99.90
46037;DHT22;31769;49.304;8.428;2023-08-30T05:21:27;14.50;99.90
46037;DHT22;31769;49.304;8.428;2023-08-30T05:24:28;14.50;99.90
46037;DHT22;31769;49.304;8.428;2023-08-30T05:27:29;14.50;99.90
46037;DHT22;31769;49.304;8.428;2023-08-30T05:30:29;14.50;99.90
46037;DHT22;31769;49.304;8.428;2023-08-30T05:33:32;14.50;99.90
46037;DHT22;31769;49.304;8.428;2023-08-30T05:36:51;14.50;99.90
46037;DHT22;31769;49.304;8.428;2023-08-30T05:40:13;14.60;99.90
46037;DHT22;31769;49.304;8.428;2023-08-30T05:43:17;14.60;99.90
46037;DHT22;31769;49.304;8.428;2023-08-30T05:46:18;14.60;99.90
46037;DHT22;31769;49.304;8.428;2023-08-30T05:49:19;14.70;99.90
46037;DHT22;31769;49.304;8.428;2023-08-30T05:52:20;14.70;99.90
46037;DHT22;31769;49.304;8.428;2023-08-30T05:55:21;14.80;99.90
46037;DHT22;31769;49.304;8.428;2023-08-30T05:58:22;14.80;99.90
46037;DHT22;31769;49.304;8.428;2023-08-30T06:01:23;14.90;99.90
46037;DHT22;31769;49.304;8.428;2023-08-30T06:04:23;14.90;99.90
46037;DHT22;31769;49.304;8.428;2023-08-30T06:07:24;15.00;99.90
46037;DHT22;31769;49.304;8.428;2023-08-30T06:10:25;15.00;99.90
46037;DHT22;31769;49.304;8.428;2023-08-30T06:13:25;15.00;99.90
46037;DHT22;31769;49.304;8.428;2023-08-30T06:16:26;15.10;99.90
46037;DHT22;31769;49.304;8.428;2023-08-30T06:19:27;15.10;99.90
46037;DHT22;31769;49.304;8.428;2023-08-30T06:22:28;15.20;99.90
46037;DHT22;31769;49.304;8.428;2023-08-30T06:25:28;15.20;99.90
46037;DHT22;31769;49.304;8.428;2023-08-30T06:28:29;15.30;99.90
46037;DHT22;31769;49.304;8.428;2023-08-30T06:31:30;15.20;99.90
46037;DHT22;31769;49.304;8.428;2023-08-30T06:34:32;15.30;99.90
46037;DHT22;31769;49.304;8.428;2023-08-30T06:37:33;15.20;99.90
46037;DHT22;31769;49.304;8.428;2023-08-30T06:40:36;15.30;99.90
46037;DHT22;31769;49.304;8.428;2023-08-30T06:43:37;15.40;99.90
46037;DHT22;31769;49.304;8.428;2023-08-30T06:46:38;15.30;99.90
46037;DHT22;31769;49.304;8.428;2023-08-30T06:49:38;15.40;99.90
46037;DHT22;31769;49.304;8.428;2023-08-30T06:52:39;15.50;99.90
46037;DHT22;31769;49.304;8.428;2023-08-30T06:55:39;15.40;99.90
46037;DHT22;31769;49.304;8.428;2023-08-30T06:58:40;15.50;99.90
46037;DHT22;31769;49.304;8.428;2023-08-30T07:01:41;15.60;99.90
46037;DHT22;31769;49.304;8.428;2023-08-30T07:04:41;15.60;99.90
46037;DHT22;31769;49.304;8.428;2023-08-30T07:07:42;15.70;99.90
46037;DHT22;31769;49.304;8.428;2023-08-30T07:10:43;15.80;99.90
46037;DHT22;31769;49.304;8.428;2023-08-30T07:13:44;15.80;99.90
46037;DHT22;31769;49.304;8.428;2023-08-30T07:16:44;15.80;99.90
46037;DHT22;31769;49.304;8.428;2023-08-30T07:19:45;15.70;99.90
46037;DHT22;31769;49.304;8.428;2023-08-30T07:22:45;15.80;99.90
46037;DHT22;31769;49.304;8.428;2023-08-30T07:25:46;15.90;99.90
46037;DHT22;31769;49.304;8.428;2023-08-30T07:28:47;16.00;99.90
46037;DHT22;31769;49.304;8.428;2023-08-30T07:31:48;16.10;99.90
46037;DHT22;31769;49.304;8.428;2023-08-30T07:34:51;16.20;99.90
46037;DHT22;31769;49.304;8.428;2023-08-30T07:37:52;16.30;99.90
46037;DHT22;31769;49.304;8.428;2023-08-30T07:40:53;16.40;99.90
46037;DHT22;31769;49.304;8.428;2023-08-30T07:43:54;16.60;99.90
46037;DHT22;31769;49.304;8.428;2023-08-30T07:46:54;16.60;99.90
46037;DHT22;31769;49.304;8.428;2023-08-30T07:49:55;16.60;99.90
46037;DHT22;31769;49.304;8.428;2023-08-30T07:52:56;16.60;99.90
46037;DHT22;31769;49.304;8.428;2023-08-30T07:55:56;16.70;99.90
46037;DHT22;31769;49.304;8.428;2023-08-30T07:58:57;16.80;99.90
46037;DHT22;31769;49.304;8.428;2023-08-30T08:01:58;16.80;99.90
46037;DHT22;31769;49.304;8.428;2023-08-30T08:04:59;16.80;99.90
46037;DHT22;31769;49.304;8.428;2023-08-30T08:08:00;16.80;99.90
46037;DHT22;31769;49.304;8.428;2023-08-30T08:11:03;16.90;99.90
46037;DHT22;31769;49.304;8.428;2023-08-30T08:14:04;17.10;99.90
46037;DHT22;31769;49.304;8.428;2023-08-30T08:17:05;17.20;99.90
46037;DHT22;31769;49.304;8.428;2023-08-30T08:20:06;17.50;99.90
46037;DHT22;31769;49.304;8.428;2023-08-30T08:23:06;17.70;99.90
46037;DHT22;31769;49.304;8.428;2023-08-30T08:26:07;17.90;99.90
46037;DHT22;31769;49.304;8.428;2023-08-30T08:29:08;18.10;99.90
46037;DHT22;31769;49.304;8.428;2023-08-30T08:32:09;18.20;99.90
46037;DHT22;31769;49.304;8.428;2023-08-30T08:35:09;18.20;99.90
46037;DHT22;31769;49.304;8.428;2023-08-30T08:38:10;18.30;99.90
46037;DHT22;31769;49.304;8.428;2023-08-30T08:41:12;18.10;99.90
46037;DHT22;31769;49.304;8.428;2023-08-30T08:44:15;18.00;99.90
46037;DHT22;31769;49.304;8.428;2023-08-30T08:47:17;17.90;99.90
46037;DHT22;31769;49.304;8.428;2023-08-30T08:50:19;18.10;99.90
46037;DHT22;31769;49.304;8.428;2023-08-30T08:53:21;18.20;99.90
46037;DHT22;31769;49.304;8.428;2023-08-30T08:56:21;18.30;99.90
46037;DHT22;31769;49.304;8.428;2023-08-30T08:59:22;18.20;99.90
46037;DHT22;31769;49.304;8.428;2023-08-30T09:02:24;18.40;99.90
46037;DHT22;31769;49.304;8.428;2023-08-30T09:05:25;18.40;99.90
46037;DHT22;31769;49.304;8.428;2023-08-30T09:08:27;18.50;99.90
46037;DHT22;31769;49.304;8.428;2023-08-30T09:11:28;18.60;99.90
46037;DHT22;31769;49.304;8.428;2023-08-30T09:14:29;18.70;99.90
46037;DHT22;31769;49.304;8.428;2023-08-30T09:17:37;18.80;99.90
46037;DHT22;31769;49.304;8.428;2023-08-30T09:20:38;18.60;99.90
46037;DHT22;31769;49.304;8.428;2023-08-30T09:23:38;18.60;99.90
46037;DHT22;31769;49.304;8.428;2023-08-30T09:26:50;18.70;99.90
46037;DHT22;31769;49.304;8.428;2023-08-30T09:29:51;18.50;99.90
46037;DHT22;31769;49.304;8.428;2023-08-30T09:32:52;18.60;99.90
46037;DHT22;31769;49.304;8.428;2023-08-30T09:35:53;18.80;99.90
46037;DHT22;31769;49.304;8.428;2023-08-30T09:38:53;18.70;99.90
46037;DHT22;31769;49.304;8.428;2023-08-30T09:41:54;18.80;99.90
46037;DHT22;31769;49.304;8.428;2023-08-30T09:44:56;18.80;99.90
46037;DHT22;31769;49.304;8.428;2023-08-30T09:47:57;18.90;99.90
46037;DHT22;31769;49.304;8.428;2023-08-30T09:50:58;18.90;99.90
46037;DHT22;31769;49.304;8.428;2023-08-30T09:54:04;18.90;99.90
46037;DHT22;31769;49.304;8.428;2023-08-30T09:57:05;19.40;99.90
46037;DHT22;31769;49.304;8.428;2023-08-30T10:00:06;19.70;99.90
46037;DHT22;31769;49.304;8.428;2023-08-30T10:03:07;19.60;99.90
46037;DHT22;31769;49.304;8.428;2023-08-30T10:06:08;19.60;99.90
46037;DHT22;31769;49.304;8.428;2023-08-30T10:09:09;19.50;99.90
46037;DHT22;31769;49.304;8.428;2023-08-30T10:12:10;19.60;99.90
46037;DHT22;31769;49.304;8.428;2023-08-30T10:15:11;19.70;99.90
46037;DHT22;31769;49.304;8.428;2023-08-30T10:18:15;19.60;99.90
46037;DHT22;31769;49.304;8.428;2023-08-30T10:21:19;19.40;99.90
46037;DHT22;31769;49.304;8.428;2023-08-30T10:24:21;19.50;99.90
46037;DHT22;31769;49.304;8.428;2023-08-30T10:27:23;19.70;99.90
46037;DHT22;31769;49.304;8.428;2023-08-30T10:30:25;19.60;99.90
46037;DHT22;31769;49.304;8.428;2023-08-30T10:33:26;19.70;99.90
46037;DHT22;31769;49.304;8.428;2023-08-30T10:36:26;20.00;99.90
46037;DHT22;31769;49.304;8.428;2023-08-30T10:39:40;20.40;99.90
46037;DHT22;31769;49.304;8.428;2023-08-30T10:42:41;20.60;99.90
46037;DHT22;31769;49.304;8.428;2023-08-30T10:45:42;20.50;99.90
46037;DHT22;31769;49.304;8.428;2023-08-30T10:48:42;20.50;99.90
46037;DHT22;31769;49.304;8.428;2023-08-30T10:51:43;20.70;99.90
46037;DHT22;31769;49.304;8.428;2023-08-30T10:54:44;20.60;99.90
46037;DHT22;31769;49.304;8.428;2023-08-30T10:57:45;20.50;99.90
46037;DHT22;31769;49.304;8.428;2023-08-30T11:00:46;20.20;99.90
46037;DHT22;31769;49.304;8.428;2023-08-30T11:03:47;20.50;99.90
46037;DHT22;31769;49.304;8.428;2023-08-30T11:06:51;20.90;99.90
46037;DHT22;31769;49.304;8.428;2023-08-30T11:09:52;21.50;99.90
46037;DHT22;31769;49.304;8.428;2023-08-30T11:12:53;21.60;99.90
46037;DHT22;31769;49.304;8.428;2023-08-30T11:15:53;22.20;99.90
46037;DHT22;31769;49.304;8.428;2023-08-30T11:18:55;22.30;99.90
46037;DHT22;31769;49.304;8.428;2023-08-30T11:21:56;22.10;99.90
46037;DHT22;31769;49.304;8.428;2023-08-30T11:24:56;21.70;99.90
46037;DHT22;31769;49.304;8.428;2023-08-30T11:28:04;21.40;99.90
46037;DHT22;31769;49.304;8.428;2023-08-30T11:31:05;21.60;99.90
46037;DHT22;31769;49.304;8.428;2023-08-30T11:34:06;22.00;99.90
46037;DHT22;31769;49.304;8.428;2023-08-30T11:37:07;22.20;99.90
46037;DHT22;31769;49.304;8.428;2023-08-30T11:40:08;22.60;99.90
46037;DHT22;31769;49.304;8.428;2023-08-30T11:43:11;22.40;99.90
46037;DHT22;31769;49.304;8.428;2023-08-30T11:46:12;22.60;99.90
46037;DHT22;31769;49.304;8.428;2023-08-30T11:49:13;22.40;99.90
46037;DHT22;31769;49.304;8.428;2023-08-30T11:52:14;22.60;99.90
46037;DHT22;31769;49.304;8.428;2023-08-30T11:55:15;22.70;99.90
46037;DHT22;31769;49.304;8.428;2023-08-30T11:58:18;22.60;99.90
46037;DHT22;31769;49.304;8.428;2023-08-30T12:01:19;22.70;99.90
46037;DHT22;31769;49.304;8.428;2023-08-30T12:04:20;23.10;99.90
46037;DHT22;31769;49.304;8.428;2023-08-30T12:07:25;23.10;99.90
46037;DHT22;31769;49.304;8.428;2023-08-30T12:10:28;23.20;99.90
46037;DHT22;31769;49.304;8.428;2023-08-30T12:13:33;23.20;99.90
46037;DHT22;31769;49.304;8.428;2023-08-30T12:16:34;24.00;99.90
46037;DHT22;31769;49.304;8.428;2023-08-30T12:19:35;25.10;99.90
46037;DHT22;31769;49.304;8.428;2023-08-30T12:22:39;26.00;99.90
46037;DHT22;31769;49.304;8.428;2023-08-30T12:25:40;26.00;99.90
46037;DHT22;31769;49.304;8.428;2023-08-30T12:28:41;26.20;99.90
46037;DHT22;31769;49.304;8.428;2023-08-30T12:31:47;26.90;98.60
46037;DHT22;31769;49.304;8.428;2023-08-30T12:34:48;26.10;99.10
46037;DHT22;31769;49.304;8.428;2023-08-30T12:37:48;25.30;99.90
46037;DHT22;31769;49.304;8.428;2023-08-30T12:40:54;25.90;98.90
46037;DHT22;31769;49.304;8.428;2023-08-30T12:43:54;28.50;95.70
46037;DHT22;31769;49.304;8.428;2023-08-30T12:46:55;27.90;94.60
46037;DHT22;31769;49.304;8.428;2023-08-30T12:49:56;25.90;97.10
46037;DHT22;31769;49.304;8.428;2023-08-30T12:52:56;25.20;97.70
46037;DHT22;31769;49.304;8.428;2023-08-30T12:55:57;24.80;97.80
46037;DHT22;31769;49.304;8.428;2023-08-30T12:58:57;24.90;98.70
46037;DHT22;31769;49.304;8.428;2023-08-30T13:01:58;25.10;97.00
46037;DHT22;31769;49.304;8.428;2023-08-30T13:04:58;25.10;96.90
46037;DHT22;31769;49.304;8.428;2023-08-30T13:08:00;24.60;97.60
46037;DHT22;31769;49.304;8.428;2023-08-30T13:11:00;23.90;98.10
46037;DHT22;31769;49.304;8.428;2023-08-30T13:14:01;23.50;98.80
46037;DHT22;31769;49.304;8.428;2023-08-30T13:17:02;23.60;99.10
46037;DHT22;31769;49.304;8.428;2023-08-30T13:20:03;24.00;98.30
46037;DHT22;31769;49.304;8.428;2023-08-30T13:23:04;24.50;97.10
46037;DHT22;31769;49.304;8.428;2023-08-30T13:26:04;24.40;97.00
46037;DHT22;31769;49.304;8.428;2023-08-30T13:29:05;24.80;97.10
46037;DHT22;31769;49.304;8.428;2023-08-30T13:32:06;27.30;94.00
46037;DHT22;31769;49.304;8.428;2023-08-30T13:35:06;28.40;92.20
46037;DHT22;31769;49.304;8.428;2023-08-30T13:38:07;30.30;84.70
46037;DHT22;31769;49.304;8.428;2023-08-30T13:41:08;31.30;77.80
46037;DHT22;31769;49.304;8.428;2023-08-30T13:44:08;29.90;76.70
46037;DHT22;31769;49.304;8.428;2023-08-30T13:47:09;28.70;80.10
46037;DHT22;31769;49.304;8.428;2023-08-30T13:50:10;28.30;80.20
46037;DHT22;31769;49.304;8.428;2023-08-30T13:53:11;28.30;81.10
46037;DHT22;31769;49.304;8.428;2023-08-30T13:56:13;27.10;82.60
46037;DHT22;31769;49.304;8.428;2023-08-30T13:59:13;26.80;84.10
46037;DHT22;31769;49.304;8.428;2023-08-30T14:02:14;26.30;84.80
46037;DHT22;31769;49.304;8.428;2023-08-30T14:05:15;25.90;84.90
46037;DHT22;31769;49.304;8.428;2023-08-30T14:08:15;25.20;87.20
46037;DHT22;31769;49.304;8.428;2023-08-30T14:11:16;24.90;87.70
46037;DHT22;31769;49.304;8.428;2023-08-30T14:14:17;26.80;84.30
46037;DHT22;31769;49.304;8.428;2023-08-30T14:17:17;28.60;79.20
46037;DHT22;31769;49.304;8.428;2023-08-30T14:20:18;27.40;79.10
46037;DHT22;31769;49.304;8.428;2023-08-30T14:23:19;27.70;79.90
46037;DHT22;31769;49.304;8.428;2023-08-30T14:26:19;29.50;73.80
46037;DHT22;31769;49.304;8.428;2023-08-30T14:29:20;30.90;70.70
46037;DHT22;31769;49.304;8.428;2023-08-30T14:32:24;32.50;66.20
46037;DHT22;31769;49.304;8.428;2023-08-30T14:35:25;32.20;63.20
46037;DHT22;31769;49.304;8.428;2023-08-30T14:38:26;32.20;63.00
46037;DHT22;31769;49.304;8.428;2023-08-30T14:41:26;32.90;60.10
46037;DHT22;31769;49.304;8.428;2023-08-30T14:44:28;33.00;59.20
46037;DHT22;31769;49.304;8.428;2023-08-30T14:47:29;32.20;58.10
46037;DHT22;31769;49.304;8.428;2023-08-30T14:50:31;32.50;59.20
46037;DHT22;31769;49.304;8.428;2023-08-30T14:53:32;33.10;58.10
46037;DHT22;31769;49.304;8.428;2023-08-30T14:56:32;31.80;58.60
46037;DHT22;31769;49.304;8.428;2023-08-30T14:59:33;31.80;59.70
46037;DHT22;31769;49.304;8.428;2023-08-30T15:02:33;31.70;59.60
46037;DHT22;31769;49.304;8.428;2023-08-30T15:05:34;31.50;59.90
46037;DHT22;31769;49.304;8.428;2023-08-30T15:08:35;31.00;60.10
46037;DHT22;31769;49.304;8.428;2023-08-30T15:11:35;32.20;59.70
46037;DHT22;31769;49.304;8.428;2023-08-30T15:14:36;31.30;60.20
46037;DHT22;31769;49.304;8.428;2023-08-30T15:17:36;29.40;61.90
46037;DHT22;31769;49.304;8.428;2023-08-30T15:20:37;28.50;64.50
46037;DHT22;31769;49.304;8.428;2023-08-30T15:23:38;29.50;63.90
46037;DHT22;31769;49.304;8.428;2023-08-30T15:26:39;30.90;60.00
46037;DHT22;31769;49.304;8.428;2023-08-30T15:29:39;31.70;59.30
46037;DHT22;31769;49.304;8.428;2023-08-30T15:32:40;31.60;57.00
46037;DHT22;31769;49.304;8.428;2023-08-30T15:35:42;30.50;59.40
46037;DHT22;31769;49.304;8.428;2023-08-30T15:38:42;30.20;61.10
46037;DHT22;31769;49.304;8.428;2023-08-30T15:41:45;30.70;60.60
46037;DHT22;31769;49.304;8.428;2023-08-30T15:44:48;31.30;60.40
46037;DHT22;31769;49.304;8.428;2023-08-30T15:47:48;32.10;59.20
46037;DHT22;31769;49.304;8.428;2023-08-30T15:50:49;32.10;58.70
46037;DHT22;31769;49.304;8.428;2023-08-30T15:53:50;32.10;59.10
46037;DHT22;31769;49.304;8.428;2023-08-30T15:56:51;32.00;58.80
46037;DHT22;31769;49.304;8.428;2023-08-30T15:59:51;31.90;60.10
46037;DHT22;31769;49.304;8.428;2023-08-30T16:02:52;30.60;61.70
46037;DHT22;31769;49.304;8.428;2023-08-30T16:05:53;28.50;64.80
46037;DHT22;31769;49.304;8.428;2023-08-30T16:08:55;26.60;68.60
46037;DHT22;31769;49.304;8.428;2023-08-30T16:11:56;25.50;72.20
46037;DHT22;31769;49.304;8.428;2023-08-30T16:14:57;24.90;74.30
46037;DHT22;31769;49.304;8.428;2023-08-30T16:17:57;25.10;73.60
46037;DHT22;31769;49.304;8.428;2023-08-30T16:20:58;24.90;75.40
46037;DHT22;31769;49.304;8.428;2023-08-30T16:23:59;24.90;75.80
46037;DHT22;31769;49.304;8.428;2023-08-30T16:26:59;27.10;73.00
46037;DHT22;31769;49.304;8.428;2023-08-30T16:30:00;29.10;67.80
46037;DHT22;31769;49.304;8.428;2023-08-30T16:33:03;30.40;65.10
46037;DHT22;31769;49.304;8.428;2023-08-30T16:36:04;31.20;63.90
46037;DHT22;31769;49.304;8.428;2023-08-30T16:39:05;30.30;61.80
46037;DHT22;31769;49.304;8.428;2023-08-30T16:42:07;29.80;63.60
46037;DHT22;31769;49.304;8.428;2023-08-30T16:45:08;28.60;64.60
46037;DHT22;31769;49.304;8.428;2023-08-30T16:48:08;27.50;66.70
46037;DHT22;31769;49.304;8.428;2023-08-30T16:51:11;26.30;69.20
46037;DHT22;31769;49.304;8.428;2023-08-30T16:54:11;24.90;72.60
46037;DHT22;31769;49.304;8.428;2023-08-30T16:57:13;24.00;74.70
46037;DHT22;31769;49.304;8.428;2023-08-30T17:00:14;23.30;77.70
46037;DHT22;31769;49.304;8.428;2023-08-30T17:03:16;22.70;80.50
46037;DHT22;31769;49.304;8.428;2023-08-30T17:06:16;22.30;82.60
46037;DHT22;31769;49.304;8.428;2023-08-30T17:09:17;22.10;84.50
46037;DHT22;31769;49.304;8.428;2023-08-30T17:12:18;21.80;86.30
46037;DHT22;31769;49.304;8.428;2023-08-30T17:15:18;21.70;87.30
46037;DHT22;31769;49.304;8.428;2023-08-30T17:18:19;21.70;89.00
46037;DHT22;31769;49.304;8.428;2023-08-30T17:21:19;22.80;86.20
46037;DHT22;31769;49.304;8.428;2023-08-30T17:24:20;23.80;84.00
46037;DHT22;31769;49.304;8.428;2023-08-30T17:27:21;23.30;85.30
46037;DHT22;31769;49.304;8.428;2023-08-30T17:30:22;22.50;88.30
46037;DHT22;31769;49.304;8.428;2023-08-30T17:33:22;22.00;90.50
46037;DHT22;31769;49.304;8.428;2023-08-30T17:36:23;21.60;91.60
46037;DHT22;31769;49.304;8.428;2023-08-30T17:39:24;21.30;92.90
46037;DHT22;31769;49.304;8.428;2023-08-30T17:42:26;21.10;94.00
46037;DHT22;31769;49.304;8.428;2023-08-30T17:45:29;20.80;95.20
46037;DHT22;31769;49.304;8.428;2023-08-30T17:48:32;20.70;96.40
46037;DHT22;31769;49.304;8.428;2023-08-30T17:51:33;20.50;97.60
46037;DHT22;31769;49.304;8.428;2023-08-30T17:54:34;20.30;98.70
46037;DHT22;31769;49.304;8.428;2023-08-30T17:57:39;20.20;99.00
46037;DHT22;31769;49.304;8.428;2023-08-30T18:00:39;20.20;99.60
46037;DHT22;31769;49.304;8.428;2023-08-30T18:03:40;20.10;99.90
46037;DHT22;31769;49.304;8.428;2023-08-30T18:06:41;20.10;99.90
46037;DHT22;31769;49.304;8.428;2023-08-30T18:09:41;20.10;99.90
46037;DHT22;31769;49.304;8.428;2023-08-30T18:12:42;20.00;99.90
46037;DHT22;31769;49.304;8.428;2023-08-30T18:15:43;20.30;99.90
46037;DHT22;31769;49.304;8.428;2023-08-30T18:18:44;19.80;99.90
46037;DHT22;31769;49.304;8.428;2023-08-30T18:21:45;19.80;99.90
46037;DHT22;31769;49.304;8.428;2023-08-30T18:24:45;18.60;99.90
46037;DHT22;31769;49.304;8.428;2023-08-30T18:27:46;16.90;99.90
46037;DHT22;31769;49.304;8.428;2023-08-30T18:30:47;16.10;99.90
46037;DHT22;31769;49.304;8.428;2023-08-30T18:33:47;15.70;99.90
46037;DHT22;31769;49.304;8.428;2023-08-30T18:36:48;15.40;99.90
46037;DHT22;31769;49.304;8.428;2023-08-30T18:39:49;15.80;99.90
46037;DHT22;31769;49.304;8.428;2023-08-30T18:42:50;15.00;99.90
46037;DHT22;31769;49.304;8.428;2023-08-30T18:45:50;14.90;99.90
46037;DHT22;31769;49.304;8.428;2023-08-30T18:48:51;14.90;99.90
46037;DHT22;31769;49.304;8.428;2023-08-30T18:51:52;14.90;99.90
46037;DHT22;31769;49.304;8.428;2023-08-30T18:54:53;14.90;99.90
46037;DHT22;31769;49.304;8.428;2023-08-30T18:57:54;15.00;99.90
46037;DHT22;31769;49.304;8.428;2023-08-30T19:00:54;15.00;99.90
46037;DHT22;31769;49.304;8.428;2023-08-30T19:03:55;15.00;99.90
46037;DHT22;31769;49.304;8.428;2023-08-30T19:06:56;15.10;99.90
46037;DHT22;31769;49.304;8.428;2023-08-30T19:09:56;15.10;99.90